createdAt,value
2016-05-15T00:00:42.968Z,84.92
2016-05-15T00:01:42.940Z,84.74
2016-05-15T00:02:42.926Z,85.5
2016-05-15T00:03:42.742Z,85.65
2016-05-15T00:04:42.886Z,85.08
2016-05-15T00:05:42.872Z,84.83
2016-05-15T00:06:42.844Z,85.02
2016-05-15T00:07:42.831Z,84.92
2016-05-15T00:08:42.817Z,85.31
2016-05-15T00:09:42.789Z,84.83
2016-05-15T00:10:42.777Z,85.21
2016-05-15T00:11:42.748Z,84.83
2016-05-15T00:12:42.735Z,84.92
2016-05-15T00:13:42.722Z,84.64
2016-05-15T00:14:42.709Z,84.83
2016-05-15T00:15:42.681Z,85.41
2016-05-15T00:16:42.667Z,86.08
2016-05-15T00:17:42.639Z,85.55
2016-05-15T00:18:42.782Z,84.74
2016-05-15T00:19:42.456Z,84.83
2016-05-15T00:20:42.600Z,84.35
2016-05-15T00:21:42.572Z,84.92
2016-05-15T00:22:42.402Z,84.55
2016-05-15T00:23:42.546Z,84.92
2016-05-15T00:24:42.517Z,84.55
2016-05-15T00:25:42.505Z,84.35
2016-05-15T00:26:42.475Z,84.16
2016-05-15T00:27:42.463Z,84.16
2016-05-15T00:28:42.449Z,84.74
2016-05-15T00:29:42.421Z,84.79
2016-05-15T00:30:42.408Z,84.92
2016-05-15T00:31:42.396Z,84.74
2016-05-15T00:32:42.367Z,84.92
2016-05-15T00:33:42.369Z,84.88
2016-05-15T00:34:42.325Z,85.02
2016-05-15T00:35:42.312Z,84.83
2016-05-15T00:36:42.299Z,85.5
2016-05-15T00:37:42.287Z,85.08
2016-05-15T00:38:42.273Z,85.41
2016-05-15T00:39:42.245Z,85.27
2016-05-15T00:40:42.232Z,85.36
2016-05-15T00:41:42.047Z,85.75
2016-05-15T00:42:42.190Z,85.36
2016-05-15T00:43:42.178Z,85.31
2016-05-15T00:44:42.149Z,84.83
2016-05-15T00:45:42.136Z,85.36
2016-05-15T00:46:42.123Z,85.31
2016-05-15T00:47:42.095Z,85.31
2016-05-15T00:48:42.097Z,85.31
2016-05-15T00:49:42.054Z,85.08
2016-05-15T00:50:42.040Z,86.04
2016-05-15T00:51:42.028Z,85.55
2016-05-15T00:52:42.014Z,85.55
2016-05-15T00:53:41.986Z,85.65
2016-05-15T00:54:41.972Z,85.65
2016-05-15T00:55:41.960Z,85.65
2016-05-15T00:56:41.931Z,85.84
2016-05-15T00:57:41.919Z,85.84
2016-05-15T00:58:41.905Z,85.17
2016-05-15T00:59:41.721Z,85.17
2016-05-15T01:00:41.864Z,85.84
2016-05-15T01:01:41.835Z,85.65
2016-05-15T01:02:41.822Z,85.84
2016-05-15T01:03:44.044Z,85.31
2016-05-15T01:04:41.969Z,85.02
2016-05-15T01:05:41.768Z,85.12
2016-05-15T01:06:41.755Z,85.36
2016-05-15T01:07:41.727Z,85.36
2016-05-15T01:08:41.713Z,85.36
2016-05-15T01:09:41.701Z,85.36
2016-05-15T01:10:41.688Z,85.08
2016-05-15T01:11:41.660Z,85.12
2016-05-15T01:12:41.490Z,85.21
2016-05-15T01:13:41.462Z,85.21
2016-05-15T01:14:41.464Z,84.74
2016-05-15T01:15:41.592Z,85.02
2016-05-15T01:16:41.563Z,84.74
2016-05-15T01:17:41.394Z,84.83
2016-05-15T01:18:41.818Z,84.92
2016-05-15T01:19:41.509Z,84.64
2016-05-15T01:20:41.339Z,84.92
2016-05-15T01:21:41.484Z,84.92
2016-05-15T01:22:41.470Z,84.64
2016-05-15T01:23:41.442Z,85.41
2016-05-15T01:24:41.428Z,85.5
2016-05-15T01:25:41.416Z,84.83
2016-05-15T01:26:41.372Z,85.02
2016-05-15T01:27:41.358Z,84.92
2016-05-15T01:28:41.345Z,84.83
2016-05-15T01:29:41.333Z,84.92
2016-05-15T01:30:41.163Z,84.64
2016-05-15T01:31:41.291Z,85.41
2016-05-15T01:32:41.278Z,85.41
2016-05-15T01:33:41.125Z,84.74
2016-05-15T01:34:41.236Z,85.12
2016-05-15T01:35:41.224Z,84.92
2016-05-15T01:36:41.211Z,85.12
2016-05-15T01:37:41.041Z,85.5
2016-05-15T01:38:41.169Z,85.02
2016-05-15T01:39:41.157Z,84.92
2016-05-15T01:40:41.127Z,85.21
2016-05-15T01:41:40.959Z,85.31
2016-05-15T01:42:41.086Z,85.6
2016-05-15T01:43:41.073Z,85.98
2016-05-15T01:44:41.060Z,85.88
2016-05-15T01:45:41.031Z,85.69
2016-05-15T01:46:41.018Z,85.94
2016-05-15T01:47:40.850Z,86.08
2016-05-15T01:48:41.024Z,85.69
2016-05-15T01:49:40.965Z,85.5
2016-05-15T01:50:40.951Z,85.98
2016-05-15T01:51:40.939Z,85.6
2016-05-15T01:52:40.909Z,85.84
2016-05-15T01:53:40.882Z,85.69
2016-05-15T01:54:40.869Z,85.5
2016-05-15T01:55:40.856Z,85.69
2016-05-15T01:56:40.827Z,85.69
2016-05-15T01:57:40.830Z,85.79
2016-05-15T01:58:40.801Z,85.6
2016-05-15T01:59:40.803Z,85.69
2016-05-15T02:00:40.760Z,85.6
2016-05-15T02:01:40.591Z,85.41
2016-05-15T02:02:40.734Z,85.21
2016-05-15T02:03:40.814Z,85.69
2016-05-15T02:04:40.677Z,85.12
2016-05-15T02:05:40.663Z,85.31
2016-05-15T02:06:40.651Z,85.21
2016-05-15T02:07:40.638Z,85.41
2016-05-15T02:08:40.624Z,85.02
2016-05-15T02:09:40.597Z,85.31
2016-05-15T02:10:40.583Z,85.69
2016-05-15T02:11:40.571Z,85.94
2016-05-15T02:12:40.557Z,85.79
2016-05-15T02:13:40.530Z,85.98
2016-05-15T02:14:40.501Z,85.69
2016-05-15T02:15:40.487Z,85.69
2016-05-15T02:16:40.475Z,85.88
2016-05-15T02:17:40.446Z,86.08
2016-05-15T02:18:40.323Z,85.69
2016-05-15T02:19:40.421Z,86.08
2016-05-15T02:20:40.407Z,85.88
2016-05-15T02:21:40.395Z,85.98
2016-05-15T02:22:40.350Z,85.5
2016-05-15T02:23:40.337Z,85.21
2016-05-15T02:24:40.325Z,85.5
2016-05-15T02:25:40.311Z,85.41
2016-05-15T02:26:40.283Z,85.31
2016-05-15T02:27:40.270Z,85.69
2016-05-15T02:28:40.257Z,85.31
2016-05-15T02:29:40.228Z,85.41
2016-05-15T02:30:40.216Z,85.41
2016-05-15T02:31:40.202Z,85.31
2016-05-15T02:32:40.175Z,85.98
2016-05-15T02:33:40.161Z,85.5
2016-05-15T02:34:40.132Z,86.08
2016-05-15T02:35:40.119Z,85.88
2016-05-15T02:36:40.107Z,85.5
2016-05-15T02:37:40.078Z,85.98
2016-05-15T02:38:40.065Z,85.88
2016-05-15T02:39:39.896Z,85.69
2016-05-15T02:40:40.039Z,85.79
2016-05-15T02:41:40.010Z,85.6
2016-05-15T02:42:39.841Z,85.69
2016-05-15T02:43:39.969Z,85.31
2016-05-15T02:44:39.957Z,84.83
2016-05-15T02:45:39.943Z,85.21
2016-05-15T02:46:39.915Z,85.21
2016-05-15T02:47:39.901Z,85.21
2016-05-15T02:48:39.732Z,85.31
2016-05-15T02:49:39.876Z,85.79
2016-05-15T02:50:39.862Z,85.5
2016-05-15T02:51:39.663Z,85.88
2016-05-15T02:52:39.821Z,85.6
2016-05-15T02:53:39.792Z,85.21
2016-05-15T02:54:39.764Z,85.41
2016-05-15T02:55:39.767Z,85.31
2016-05-15T02:56:39.739Z,85.69
2016-05-15T02:57:39.725Z,85.69
2016-05-15T02:58:39.698Z,85.88
2016-05-15T02:59:39.528Z,85.69
2016-05-15T03:00:39.671Z,85.5
2016-05-15T03:01:39.642Z,85.79
2016-05-15T03:02:39.645Z,85.88
2016-05-15T03:03:40.522Z,85.69
2016-05-15T03:04:39.447Z,85.98
2016-05-15T03:05:39.575Z,85.79
2016-05-15T03:06:39.563Z,85.88
2016-05-15T03:07:39.533Z,85.6
2016-05-15T03:08:39.521Z,85.98
2016-05-15T03:09:39.492Z,85.98
2016-05-15T03:10:39.479Z,85.69
2016-05-15T03:11:39.466Z,85.6
2016-05-15T03:12:39.438Z,85.46
2016-05-15T03:13:39.425Z,85.98
2016-05-15T03:14:39.412Z,85.88
2016-05-15T03:15:39.399Z,86.36
2016-05-15T03:16:39.371Z,85.88
2016-05-15T03:17:39.201Z,85.79
2016-05-15T03:18:39.345Z,86.13
2016-05-15T03:19:39.175Z,86.27
2016-05-15T03:20:39.304Z,86.08
2016-05-15T03:21:39.290Z,85.88
2016-05-15T03:22:39.276Z,85.79
2016-05-15T03:23:39.249Z,85.79
2016-05-15T03:24:39.220Z,86.27
2016-05-15T03:25:39.206Z,86.27
2016-05-15T03:26:39.195Z,85.31
2016-05-15T03:27:39.181Z,85.88
2016-05-15T03:28:39.153Z,85.88
2016-05-15T03:29:38.983Z,86.08
2016-05-15T03:30:39.111Z,86.27
2016-05-15T03:31:39.098Z,86.17
2016-05-15T03:32:39.085Z,86.17
2016-05-15T03:33:39.056Z,86.36
2016-05-15T03:34:39.216Z,85.5
2016-05-15T03:35:39.031Z,85.69
2016-05-15T03:36:39.018Z,85.98
2016-05-15T03:37:38.989Z,85.79
2016-05-15T03:38:38.977Z,86.36
2016-05-15T03:39:38.947Z,85.79
2016-05-15T03:40:38.935Z,85.5
2016-05-15T03:41:38.907Z,86.08
2016-05-15T03:42:38.738Z,86.17
2016-05-15T03:43:38.880Z,85.6
2016-05-15T03:44:38.867Z,85.98
2016-05-15T03:45:38.839Z,85.79
2016-05-15T03:46:38.826Z,86.41
2016-05-15T03:47:38.812Z,85.94
2016-05-15T03:48:38.785Z,86.46
2016-05-15T03:49:39.147Z,85.88
2016-05-15T03:50:38.743Z,85.98
2016-05-15T03:51:38.589Z,85.69
2016-05-15T03:52:38.702Z,85.69
2016-05-15T03:53:38.704Z,85.41
2016-05-15T03:54:38.691Z,85.21
2016-05-15T03:55:38.663Z,85.98
2016-05-15T03:56:38.650Z,85.98
2016-05-15T03:57:38.621Z,85.21
2016-05-15T03:58:38.608Z,85.31
2016-05-15T03:59:38.595Z,84.74
2016-05-15T04:00:38.567Z,84.83
2016-05-15T04:01:38.553Z,85.69
2016-05-15T04:02:38.525Z,84.92
2016-05-15T04:03:38.512Z,84.55
2016-05-15T04:04:38.828Z,84.97
2016-05-15T04:05:38.486Z,84.83
2016-05-15T04:06:38.302Z,85.02
2016-05-15T04:07:38.289Z,84.92
2016-05-15T04:08:38.432Z,85.21
2016-05-15T04:09:38.403Z,85.31
2016-05-15T04:10:38.391Z,84.92
2016-05-15T04:11:38.363Z,84.92
2016-05-15T04:12:38.333Z,84.88
2016-05-15T04:13:38.195Z,84.92
2016-05-15T04:14:38.308Z,85.06
2016-05-15T04:15:38.294Z,84.92
2016-05-15T04:16:38.125Z,84.74
2016-05-15T04:17:38.254Z,85.02
2016-05-15T04:18:38.615Z,85.41
2016-05-15T04:19:38.071Z,85.21
2016-05-15T04:20:38.043Z,85.41
2016-05-15T04:21:38.186Z,85.88
2016-05-15T04:22:38.173Z,85.88
2016-05-15T04:23:38.159Z,85.98
2016-05-15T04:24:38.132Z,85.21
2016-05-15T04:25:38.103Z,85.41
2016-05-15T04:26:38.090Z,85.41
2016-05-15T04:27:38.076Z,85.31
2016-05-15T04:28:38.064Z,85.79
2016-05-15T04:29:38.036Z,85.5
2016-05-15T04:30:38.038Z,85.21
2016-05-15T04:31:38.009Z,85.41
2016-05-15T04:32:37.981Z,84.64
2016-05-15T04:33:37.968Z,84.74
2016-05-15T04:34:37.955Z,84.74
2016-05-15T04:35:37.942Z,84.92
2016-05-15T04:36:37.914Z,85.02
2016-05-15T04:37:37.900Z,85.02
2016-05-15T04:38:37.872Z,84.74
2016-05-15T04:39:37.703Z,84.74
2016-05-15T04:40:37.830Z,85.02
2016-05-15T04:41:37.818Z,84.74
2016-05-15T04:42:37.805Z,84.88
2016-05-15T04:43:37.791Z,84.74
2016-05-15T04:44:37.763Z,84.92
2016-05-15T04:45:37.593Z,85.12
2016-05-15T04:46:37.597Z,85.5
2016-05-15T04:47:37.552Z,85.6
2016-05-15T04:48:37.696Z,85.31
2016-05-15T04:49:37.683Z,84.92
2016-05-15T04:50:37.670Z,84.88
2016-05-15T04:51:37.641Z,85.41
2016-05-15T04:52:37.629Z,85.21
2016-05-15T04:53:37.600Z,85.31
2016-05-15T04:54:37.587Z,85.06
2016-05-15T04:55:37.574Z,85.21
2016-05-15T04:56:37.546Z,84.88
2016-05-15T04:57:37.532Z,85.31
2016-05-15T04:58:37.504Z,85.21
2016-05-15T04:59:37.491Z,85.6
2016-05-15T05:00:37.478Z,85.31
2016-05-15T05:01:37.465Z,85.98
2016-05-15T05:02:37.436Z,85.31
2016-05-15T05:03:37.440Z,84.68
2016-05-15T05:04:37.255Z,85.16
2016-05-15T05:05:37.397Z,85.41
2016-05-15T05:06:37.370Z,85.31
2016-05-15T05:07:37.356Z,85.41
2016-05-15T05:08:37.327Z,85.35
2016-05-15T05:09:37.315Z,85.79
2016-05-15T05:10:37.286Z,85.12
2016-05-15T05:11:37.289Z,85.31
2016-05-15T05:12:37.260Z,85.88
2016-05-15T05:13:37.247Z,85.98
2016-05-15T05:14:37.219Z,85.88
2016-05-15T05:15:37.205Z,85.5
2016-05-15T05:16:37.037Z,85.79
2016-05-15T05:17:37.024Z,85.98
2016-05-15T05:18:37.152Z,85.31
2016-05-15T05:19:37.341Z,85.5
2016-05-15T05:20:37.110Z,85.31
2016-05-15T05:21:37.097Z,85.88
2016-05-15T05:22:37.084Z,85.98
2016-05-15T05:23:37.056Z,85.79
2016-05-15T05:24:37.042Z,85.21
2016-05-15T05:25:37.015Z,85.6
2016-05-15T05:26:37.001Z,85.21
2016-05-15T05:27:36.987Z,85.31
2016-05-15T05:28:36.960Z,85.41
2016-05-15T05:29:36.790Z,84.64
2016-05-15T05:30:36.933Z,84.64
2016-05-15T05:31:36.920Z,84.92
2016-05-15T05:32:36.737Z,85.31
2016-05-15T05:33:36.879Z,86.08
2016-05-15T05:34:36.694Z,85.31
2016-05-15T05:35:36.839Z,85.21
2016-05-15T05:36:36.841Z,85.31
2016-05-15T05:37:36.811Z,85.31
2016-05-15T05:38:36.783Z,85.12
2016-05-15T05:39:36.770Z,84.92
2016-05-15T05:40:36.758Z,84.92
2016-05-15T05:41:36.572Z,84.92
2016-05-15T05:42:36.716Z,84.74
2016-05-15T05:43:36.688Z,84.74
2016-05-15T05:44:36.674Z,84.92
2016-05-15T05:45:36.646Z,84.83
2016-05-15T05:46:36.633Z,85.12
2016-05-15T05:47:36.464Z,84.55
2016-05-15T05:48:36.607Z,84.97
2016-05-15T05:49:36.594Z,84.92
2016-05-15T05:50:36.425Z,84.83
2016-05-15T05:51:36.552Z,84.92
2016-05-15T05:52:36.524Z,85.02
2016-05-15T05:53:36.512Z,84.55
2016-05-15T05:54:36.498Z,84.01
2016-05-15T05:55:36.485Z,84.2
2016-05-15T05:56:36.457Z,84.3
2016-05-15T05:57:36.443Z,84.58
2016-05-15T05:58:36.415Z,83.92
2016-05-15T05:59:36.402Z,83.97
2016-05-15T06:00:36.390Z,84.55
2016-05-15T06:01:36.204Z,85.12
2016-05-15T06:02:36.348Z,84.64
2016-05-15T06:03:36.335Z,84.74
2016-05-15T06:04:36.322Z,84.74
2016-05-15T06:05:36.294Z,84.3
2016-05-15T06:06:36.281Z,84.11
2016-05-15T06:07:36.252Z,84.92
2016-05-15T06:08:36.239Z,84.74
2016-05-15T06:09:36.225Z,84.16
2016-05-15T06:10:36.214Z,84.39
2016-05-15T06:11:36.185Z,84.92
2016-05-15T06:12:36.188Z,84.83
2016-05-15T06:13:36.143Z,85.02
2016-05-15T06:14:36.130Z,84.74
2016-05-15T06:15:36.102Z,85.02
2016-05-15T06:16:36.104Z,84.74
2016-05-15T06:17:36.077Z,84.06
2016-05-15T06:18:36.063Z,84.3
2016-05-15T06:19:36.190Z,84.06
2016-05-15T06:20:36.022Z,84.11
2016-05-15T06:21:35.993Z,83.72
2016-05-15T06:22:35.839Z,84.49
2016-05-15T06:23:35.967Z,84.11
2016-05-15T06:24:35.954Z,84.16
2016-05-15T06:25:35.941Z,84.16
2016-05-15T06:26:35.912Z,83.87
2016-05-15T06:27:35.899Z,83.92
2016-05-15T06:28:35.871Z,83.82
2016-05-15T06:29:35.858Z,83.82
2016-05-15T06:30:35.845Z,84.74
2016-05-15T06:31:35.832Z,84.92
2016-05-15T06:32:35.804Z,84.74
2016-05-15T06:33:35.775Z,84.64
2016-05-15T06:34:36.184Z,84.06
2016-05-15T06:35:35.750Z,84.39
2016-05-15T06:36:35.736Z,84.3
2016-05-15T06:37:35.708Z,84.11
2016-05-15T06:38:35.694Z,84.11
2016-05-15T06:39:35.682Z,84.39
2016-05-15T06:40:35.653Z,83.72
2016-05-15T06:41:35.640Z,83.72
2016-05-15T06:42:35.628Z,83.53
2016-05-15T06:43:35.599Z,83.63
2016-05-15T06:44:35.586Z,84.01
2016-05-15T06:45:35.557Z,84.01
2016-05-15T06:46:35.561Z,83.92
2016-05-15T06:47:35.532Z,83.92
2016-05-15T06:48:35.502Z,83.44
2016-05-15T06:49:35.788Z,83.44
2016-05-15T06:50:35.477Z,83.34
2016-05-15T06:51:35.463Z,83.53
2016-05-15T06:52:35.451Z,83.53
2016-05-15T06:53:35.423Z,84.11
2016-05-15T06:54:35.410Z,84.58
2016-05-15T06:55:35.396Z,84.45
2016-05-15T06:56:35.368Z,84.01
2016-05-15T06:57:35.355Z,83.34
2016-05-15T06:58:35.326Z,83.34
2016-05-15T06:59:35.314Z,83.72
2016-05-15T07:00:35.317Z,83.92
2016-05-15T07:01:35.273Z,83.82
2016-05-15T07:02:35.259Z,83.53
2016-05-15T07:03:35.246Z,83.82
2016-05-15T07:04:35.078Z,82.96
2016-05-15T07:05:35.205Z,82.9
2016-05-15T07:06:35.191Z,83.63
2016-05-15T07:07:35.164Z,83.29
2016-05-15T07:08:35.150Z,82.42
2016-05-15T07:09:35.137Z,82.9
2016-05-15T07:10:35.108Z,82.9
2016-05-15T07:11:35.097Z,82.71
2016-05-15T07:12:34.927Z,83.09
2016-05-15T07:13:35.054Z,83
2016-05-15T07:14:34.886Z,83.34
2016-05-15T07:15:35.013Z,83
2016-05-15T07:16:35.016Z,83.29
2016-05-15T07:17:35.003Z,82.48
2016-05-15T07:18:34.818Z,82.9
2016-05-15T07:19:35.008Z,82.9
2016-05-15T07:20:34.948Z,82.9
2016-05-15T07:21:34.935Z,82.9
2016-05-15T07:22:34.922Z,83.09
2016-05-15T07:23:34.879Z,82.71
2016-05-15T07:24:34.724Z,82.9
2016-05-15T07:25:34.852Z,82.9
2016-05-15T07:26:34.840Z,82.62
2016-05-15T07:27:34.810Z,82.71
2016-05-15T07:28:34.798Z,83
2016-05-15T07:29:34.785Z,83
2016-05-15T07:30:34.757Z,83.09
2016-05-15T07:31:34.743Z,82.62
2016-05-15T07:32:34.731Z,82.62
2016-05-15T07:33:34.718Z,82.42
2016-05-15T07:34:34.704Z,81.85
2016-05-15T07:35:34.660Z,82.14
2016-05-15T07:36:34.648Z,83.19
2016-05-15T07:37:34.478Z,82.52
2016-05-15T07:38:34.626Z,82.04
2016-05-15T07:39:34.656Z,82.42
2016-05-15T07:40:34.703Z,82.23
2016-05-15T07:41:34.561Z,81.46
2016-05-15T07:42:34.732Z,81.46
2016-05-15T07:43:34.594Z,81.79
2016-05-15T07:44:34.596Z,81.75
2016-05-15T07:45:34.740Z,81.98
2016-05-15T07:46:34.758Z,81.51
2016-05-15T07:47:34.745Z,81.51
2016-05-15T07:48:34.572Z,81.79
2016-05-15T07:49:34.736Z,81.7
2016-05-15T07:50:34.697Z,81.7
2016-05-15T07:51:34.705Z,81.89
2016-05-15T07:52:34.698Z,81.6
2016-05-15T07:53:41.673Z,81.7
2016-05-15T07:54:34.662Z,81.51
2016-05-15T07:55:34.635Z,81.79
2016-05-15T07:56:34.639Z,81.31
2016-05-15T07:57:34.613Z,81.89
2016-05-15T07:58:34.445Z,81.79
2016-05-15T07:59:34.418Z,81.41
2016-05-15T08:00:34.562Z,81.6
2016-05-15T08:01:34.549Z,81.12
2016-05-15T08:02:34.522Z,80.83
2016-05-15T08:03:34.509Z,81.22
2016-05-15T08:04:34.356Z,81.51
2016-05-15T08:05:34.484Z,81.22
2016-05-15T08:06:34.488Z,81.41
2016-05-15T08:07:34.475Z,81.41
2016-05-15T08:08:34.430Z,81.79
2016-05-15T08:09:34.419Z,81.22
2016-05-15T08:10:34.233Z,81.22
2016-05-15T08:11:34.376Z,81.31
2016-05-15T08:12:34.363Z,81.31
2016-05-15T08:13:34.335Z,81.31
2016-05-15T08:14:34.322Z,81.35
2016-05-15T08:15:34.309Z,80.78
2016-05-15T08:16:34.280Z,80.68
2016-05-15T08:17:34.268Z,80.58
2016-05-15T08:18:34.254Z,80.68
2016-05-15T08:19:34.085Z,80.11
2016-05-15T08:20:34.213Z,80.78
2016-05-15T08:21:34.044Z,80.68
2016-05-15T08:22:34.187Z,80.87
2016-05-15T08:23:34.190Z,80.58
2016-05-15T08:24:34.146Z,80.58
2016-05-15T08:25:34.133Z,80.58
2016-05-15T08:26:34.117Z,80.3
2016-05-15T08:27:34.089Z,80.3
2016-05-15T08:28:34.075Z,80.3
2016-05-15T08:29:34.063Z,80.58
2016-05-15T08:30:34.034Z,80.78
2016-05-15T08:31:34.052Z,80.49
2016-05-15T08:32:34.008Z,80.3
2016-05-15T08:33:33.980Z,80.3
2016-05-15T08:34:33.983Z,80.11
2016-05-15T08:35:33.953Z,79.76
2016-05-15T08:36:33.786Z,79.67
2016-05-15T08:37:33.928Z,79.47
2016-05-15T08:38:33.915Z,79.76
2016-05-15T08:39:33.731Z,79.67
2016-05-15T08:40:33.874Z,79.76
2016-05-15T08:41:33.860Z,78.99
2016-05-15T08:42:33.691Z,79.28
2016-05-15T08:43:33.819Z,79.28
2016-05-15T08:44:33.807Z,79.38
2016-05-15T08:45:33.793Z,79.47
2016-05-15T08:46:33.780Z,79.47
2016-05-15T08:47:33.752Z,79.28
2016-05-15T08:48:33.723Z,79.47
2016-05-15T08:49:34.320Z,78.99
2016-05-15T08:50:33.713Z,79.28
2016-05-15T08:51:33.685Z,79.22
2016-05-15T08:52:33.671Z,79.38
2016-05-15T08:53:33.659Z,79.57
2016-05-15T08:54:33.645Z,79.28
2016-05-15T08:55:33.617Z,78.75
2016-05-15T08:56:33.604Z,79.22
2016-05-15T08:57:33.592Z,79.22
2016-05-15T08:58:33.406Z,78.84
2016-05-15T08:59:33.565Z,78.94
2016-05-15T09:00:33.537Z,78.36
2016-05-15T09:01:33.523Z,78.17
2016-05-15T09:02:33.511Z,78.36
2016-05-15T09:03:33.498Z,79.03
2016-05-15T09:04:33.485Z,77.84
2016-05-15T09:05:33.442Z,77.98
2016-05-15T09:06:33.428Z,77.21
2016-05-15T09:07:33.430Z,76.92
2016-05-15T09:08:33.417Z,77.69
2016-05-15T09:09:33.404Z,77.11
2016-05-15T09:10:33.376Z,77.59
2016-05-15T09:11:33.364Z,77.5
2016-05-15T09:12:33.335Z,77.11
2016-05-15T09:13:33.180Z,76.73
2016-05-15T09:14:33.309Z,76.44
2016-05-15T09:15:33.280Z,76.54
2016-05-15T09:16:33.282Z,76.54
2016-05-15T09:17:33.254Z,76.77
2016-05-15T09:18:33.086Z,76.67
2016-05-15T09:19:33.369Z,76.67
2016-05-15T09:20:33.215Z,76.29
2016-05-15T09:21:33.187Z,76.57
2016-05-15T09:22:33.033Z,76.29
2016-05-15T09:23:33.005Z,76.57
2016-05-15T09:24:33.148Z,76.19
2016-05-15T09:25:33.120Z,76.57
2016-05-15T09:26:32.966Z,76.29
2016-05-15T09:27:33.093Z,76.29
2016-05-15T09:28:33.081Z,76.57
2016-05-15T09:29:33.053Z,75.9
2016-05-15T09:30:33.055Z,75.52
2016-05-15T09:31:32.870Z,75.13
2016-05-15T09:32:33.014Z,75.17
2016-05-15T09:33:33.000Z,74.69
2016-05-15T09:34:33.237Z,75.07
2016-05-15T09:35:32.959Z,75.65
2016-05-15T09:36:32.946Z,75.71
2016-05-15T09:37:32.777Z,75.27
2016-05-15T09:38:32.920Z,75.07
2016-05-15T09:39:32.908Z,75.84
2016-05-15T09:40:32.878Z,75.75
2016-05-15T09:41:32.866Z,75.27
2016-05-15T09:42:32.869Z,75.07
2016-05-15T09:43:32.840Z,75.46
2016-05-15T09:44:32.827Z,75.84
2016-05-15T09:45:32.813Z,75.65
2016-05-15T09:46:32.802Z,76.32
2016-05-15T09:47:32.772Z,76.14
2016-05-15T09:48:32.760Z,75.94
2016-05-15T09:49:32.746Z,76.04
2016-05-15T09:50:32.734Z,75.46
2016-05-15T09:51:32.721Z,75.56
2016-05-15T09:52:32.708Z,76.14
2016-05-15T09:53:32.679Z,75.46
2016-05-15T09:54:32.666Z,75.27
2016-05-15T09:55:32.653Z,75.27
2016-05-15T09:56:32.468Z,74.82
2016-05-15T09:57:32.628Z,74.05
2016-05-15T09:58:32.614Z,73.99
2016-05-15T09:59:32.430Z,73.67
2016-05-15T10:00:32.557Z,73.57
2016-05-15T10:01:32.545Z,73.9
2016-05-15T10:02:32.547Z,73.42
2016-05-15T10:03:32.519Z,72.26
2016-05-15T10:04:32.506Z,72.55
2016-05-15T10:05:32.492Z,73.28
2016-05-15T10:06:32.323Z,73.28
2016-05-15T10:07:32.451Z,73.67
2016-05-15T10:08:32.454Z,73.28
2016-05-15T10:09:32.441Z,72.45
2016-05-15T10:10:32.427Z,72.17
2016-05-15T10:11:32.399Z,72.07
2016-05-15T10:12:32.231Z,73.51
2016-05-15T10:13:32.374Z,73.77
2016-05-15T10:14:32.360Z,72.42
2016-05-15T10:15:32.192Z,72.07
2016-05-15T10:16:32.335Z,72.26
2016-05-15T10:17:32.322Z,71.49
2016-05-15T10:18:32.293Z,71.59
2016-05-15T10:19:32.641Z,70.86
2016-05-15T10:20:32.268Z,69.93
2016-05-15T10:21:32.099Z,69.25
2016-05-15T10:22:32.241Z,68.04
2016-05-15T10:23:32.212Z,68.71
2016-05-15T10:24:32.060Z,68.42
2016-05-15T10:25:32.187Z,67.84
2016-05-15T10:26:32.174Z,67.94
2016-05-15T10:27:32.161Z,67.84
2016-05-15T10:28:32.179Z,68.13
2016-05-15T10:29:32.135Z,67.2
2016-05-15T10:30:32.123Z,66.91
2016-05-15T10:31:32.406Z,67.3
2016-05-15T10:32:32.097Z,68.32
2016-05-15T10:33:32.068Z,68.48
2016-05-15T10:34:32.071Z,68.87
2016-05-15T10:35:32.058Z,69.06
2016-05-15T10:36:32.044Z,69.06
2016-05-15T10:37:32.032Z,69.25
2016-05-15T10:38:32.004Z,69.15
2016-05-15T10:39:31.991Z,68.71
2016-05-15T10:40:31.993Z,68.58
2016-05-15T10:41:31.981Z,70.02
2016-05-15T10:42:31.952Z,69.73
2016-05-15T10:43:31.955Z,69.54
2016-05-15T10:44:31.925Z,69.35
2016-05-15T10:45:31.913Z,69.35
2016-05-15T10:46:31.900Z,69.15
2016-05-15T10:47:31.888Z,68.48
2016-05-15T10:48:31.874Z,68.32
2016-05-15T10:49:31.861Z,68.23
2016-05-15T10:50:31.848Z,69.77
2016-05-15T10:51:31.899Z,69.35
2016-05-15T10:52:31.822Z,68.9
2016-05-15T10:53:31.809Z,68.23
2016-05-15T10:54:31.812Z,67.26
2016-05-15T10:55:31.783Z,67
2016-05-15T10:56:31.771Z,67.78
2016-05-15T10:57:31.757Z,67.74
2016-05-15T10:58:31.745Z,69.57
2016-05-15T10:59:31.731Z,69.54
2016-05-15T11:00:31.735Z,69.09
2016-05-15T11:01:31.550Z,68.99
2016-05-15T11:02:31.693Z,68.71
2016-05-15T11:03:31.680Z,69.29
2016-05-15T11:04:31.762Z,68.42
2016-05-15T11:05:31.685Z,68.8
2016-05-15T11:06:31.642Z,68.13
2016-05-15T11:07:31.628Z,68.16
2016-05-15T11:08:31.459Z,67.94
2016-05-15T11:09:31.446Z,67.94
2016-05-15T11:10:31.590Z,69.38
2016-05-15T11:11:31.577Z,68.9
2016-05-15T11:12:31.564Z,68.52
2016-05-15T11:13:31.550Z,67.84
2016-05-15T11:14:31.538Z,67.94
2016-05-15T11:15:31.524Z,67.26
2016-05-15T11:16:31.512Z,67.1
2016-05-15T11:17:31.499Z,67.3
2016-05-15T11:18:31.502Z,66.27
2016-05-15T11:19:31.488Z,66.36
2016-05-15T11:20:31.476Z,66.36
2016-05-15T11:21:31.463Z,66.56
2016-05-15T11:22:31.449Z,66.75
2016-05-15T11:23:31.437Z,65.72
2016-05-15T11:24:31.424Z,66.11
2016-05-15T11:25:31.426Z,65.59
2016-05-15T11:26:31.413Z,65.53
2016-05-15T11:27:31.401Z,65.91
2016-05-15T11:28:31.372Z,64.86
2016-05-15T11:29:31.375Z,64.47
2016-05-15T11:30:31.362Z,63.34
2016-05-15T11:31:31.365Z,63.15
2016-05-15T11:32:31.351Z,63.92
2016-05-15T11:33:31.354Z,62.12
2016-05-15T11:34:31.342Z,61.92
2016-05-15T11:35:31.345Z,63.28
2016-05-15T11:36:31.159Z,65.27
2016-05-15T11:37:31.303Z,64.28
2016-05-15T11:38:31.289Z,64.21
2016-05-15T11:39:31.292Z,62.86
2016-05-15T11:40:31.295Z,64.01
2016-05-15T11:41:31.267Z,62.76
2016-05-15T11:42:31.363Z,62.7
2016-05-15T11:43:31.100Z,63.18
2016-05-15T11:44:31.258Z,63.05
2016-05-15T11:45:31.247Z,63.15
2016-05-15T11:46:31.233Z,63.21
2016-05-15T11:47:31.064Z,64.08
2016-05-15T11:48:31.207Z,65.24
2016-05-15T11:49:31.054Z,63.85
2016-05-15T11:50:31.181Z,62.73
2016-05-15T11:51:31.185Z,62.82
2016-05-15T11:52:31.171Z,62.95
2016-05-15T11:53:31.174Z,61.89
2016-05-15T11:54:31.113Z,63.18
2016-05-15T11:55:31.148Z,62.57
2016-05-15T11:56:31.337Z,61.86
2016-05-15T11:57:31.138Z,63.28
2016-05-15T11:58:31.141Z,62.76
2016-05-15T11:59:31.112Z,61.27
2016-05-15T12:00:31.114Z,60.21
2016-05-15T12:01:31.101Z,61.27
2016-05-15T12:02:31.089Z,61.05
2016-05-15T12:03:31.092Z,61.57
2016-05-15T12:04:31.235Z,61.08
2016-05-15T12:05:31.065Z,61.08
2016-05-15T12:06:31.068Z,61.25
2016-05-15T12:07:31.055Z,60.5
2016-05-15T12:08:31.042Z,59.25
2016-05-15T12:09:31.029Z,59.28
2016-05-15T12:10:31.017Z,57.79
2016-05-15T12:11:31.019Z,56.88
2016-05-15T12:12:31.006Z,57.18
2016-05-15T12:13:30.994Z,56.7
2016-05-15T12:14:30.840Z,56.3
2016-05-15T12:15:30.983Z,56.79
2016-05-15T12:16:30.986Z,57.15
2016-05-15T12:17:30.972Z,57.08
2016-05-15T12:18:30.960Z,56.79
2016-05-15T12:19:30.977Z,58.02
2016-05-15T12:20:30.949Z,57.15
2016-05-15T12:21:30.969Z,56.86
2016-05-15T12:22:30.939Z,57.18
2016-05-15T12:23:30.942Z,58.28
2016-05-15T12:24:30.913Z,59.92
2016-05-15T12:25:30.901Z,59.8
2016-05-15T12:26:30.903Z,58.93
2016-05-15T12:27:30.891Z,59.25
2016-05-15T12:28:30.893Z,60.28
2016-05-15T12:29:30.880Z,61.25
2016-05-15T12:30:30.867Z,60.35
2016-05-15T12:31:30.854Z,56.99
2016-05-15T12:32:30.857Z,55.51
2016-05-15T12:33:30.844Z,54.85
2016-05-15T12:34:30.846Z,54.79
2016-05-15T12:35:30.834Z,52.56
2016-05-15T12:36:30.820Z,51.74
2016-05-15T12:37:30.823Z,51.37
2016-05-15T12:38:30.811Z,51.18
2016-05-15T12:39:30.642Z,51.57
2016-05-15T12:40:30.801Z,51.11
2016-05-15T12:41:30.787Z,49.46
2016-05-15T12:42:30.806Z,48.25
2016-05-15T12:43:30.777Z,45.87
2016-05-15T12:44:30.780Z,46.84
2016-05-15T12:45:30.766Z,47.03
2016-05-15T12:46:30.614Z,44.99
2016-05-15T12:47:30.756Z,45.62
2016-05-15T12:48:30.759Z,46.06
2016-05-15T12:49:30.762Z,45.38
2016-05-15T12:50:30.749Z,45.48
2016-05-15T12:51:30.767Z,45.87
2016-05-15T12:52:30.754Z,45.48
2016-05-15T12:53:30.601Z,44.92
2016-05-15T12:54:30.744Z,47.42
2016-05-15T12:55:30.747Z,50.14